Howardton, Illinois
Current Conditions -  °F | °C
As of 5:52 PM on Thursday 18 Dec 2014 (Local Time) from KMDH Reporting Station
Overcast Overcast  
Wind Chill: 34°   Ceiling: 5500
Heat Index: 34°   Visibility: 9mi
Dew Point: 29°   Wind: 0mph
Humidity: 82%   Direction: NA
Pressure: 30.24"   Gusts: NA
Location:  37.6428°N, 89.4674°W
Report Text: KMDH 182352Z AUTO 00000KT 9SM OVC055 01/M02 A3024 RMK AO2 SLP245 T00111017 10017 20000 53003
Loading
Personal Weather Stations






























Interactive Weather Map New forecast layout! Learn more

10-Day Weather Forecast

Advertisements
Track Severe Weather on mobile